Time;durP1;ratioP1;P1;durP2;ratioP2;P2;SDS_P1;SDS_P2;PMS_P1;PMS_P2;Temp;Humidity;BMP_temperature;BMP_pressure;BME280_temperature;BME280_humidity;BME280_pressure;Samples;Min_cycle;Max_cycle;Signal;HPM_P1;HPM_P2
2023/12/13 00:02:28;;;;;;;32.80;29.60;;;;;;;1.11;100.00;96811.86;107148;1273;22523;-77
2023/12/13 00:04:56;;;;;;;33.20;30.00;;;;;;;1.08;100.00;96799.34;107095;1272;24209;-76
2023/12/13 00:07:24;;;;;;;31.40;28.20;;;;;;;1.15;100.00;96802.80;107218;1274;22646;-77
2023/12/13 00:09:52;;;;;;;28.40;25.40;;;;;;;1.23;100.00;96800.20;107428;1263;23878;-76
2023/12/13 00:12:20;;;;;;;29.50;25.60;;;;;;;1.29;100.00;96793.25;107376;1274;22537;-77
2023/12/13 00:14:48;;;;;;;29.20;25.60;;;;;;;1.38;100.00;96795.63;107572;1273;22571;-76
2023/12/13 00:17:18;;;;;;;26.50;23.70;;;;;;;1.49;100.00;96793.97;107208;1269;24283;-76
2023/12/13 00:19:47;;;;;;;28.70;25.60;;;;;;;1.61;100.00;96793.60;106965;1274;25393;-76
2023/12/13 00:22:15;;;;;;;24.90;22.40;;;;;;;1.72;100.00;96783.73;107043;1271;22523;-77
2023/12/13 00:24:43;;;;;;;30.00;27.00;;;;;;;1.82;100.00;96780.32;106994;1273;25230;-77
2023/12/13 00:27:11;;;;;;;25.60;23.20;;;;;;;1.91;100.00;96777.16;107452;1268;25204;-77
2023/12/13 00:29:39;;;;;;;26.20;22.80;;;;;;;1.99;100.00;96779.11;107054;1264;24366;-76
2023/12/13 00:32:07;;;;;;;27.70;24.90;;;;;;;2.06;100.00;96773.41;107136;1273;22540;-75
2023/12/13 00:38:43;;;;;;;22.80;20.40;;;;;;;2.23;100.00;96757.38;107077;1267;22536;-75
2023/12/13 00:41:11;;;;;;;24.00;21.50;;;;;;;2.28;100.00;96752.27;107100;1260;25526;-76
2023/12/13 00:43:39;;;;;;;24.00;21.50;;;;;;;2.32;100.00;96747.03;107448;1260;24565;-75
2023/12/13 00:46:14;;;;;;;25.40;22.50;;;;;;;2.36;100.00;96738.82;107278;1263;22527;-75
2023/12/13 00:48:42;;;;;;;22.20;19.00;;;;;;;2.40;100.00;96727.54;106997;1267;22544;-75
2023/12/13 00:51:21;;;;;;;22.20;19.00;;;;;;;2.46;100.00;96731.70;106937;1273;25242;-75
2023/12/13 00:53:49;;;;;;;20.80;18.60;;;;;;;2.57;100.00;96731.27;107012;1273;22775;-74
2023/12/13 00:56:18;;;;;;;22.50;19.60;;;;;;;2.66;100.00;96725.19;106664;1273;26653;-74
2023/12/13 00:58:47;;;;;;;24.70;22.10;;;;;;;2.77;100.00;96725.66;106548;1270;23918;-75
2023/12/13 01:01:16;;;;;;;26.10;23.40;;;;;;;2.86;100.00;96730.71;106481;1270;24270;-76
2023/12/13 01:03:44;;;;;;;27.70;24.80;;;;;;;2.90;100.00;96732.10;106467;1275;22531;-76
2023/12/13 01:06:13;;;;;;;31.20;28.10;;;;;;;2.95;100.00;96727.77;106460;1261;23931;-74
2023/12/13 01:08:41;;;;;;;27.30;24.80;;;;;;;2.97;100.00;96720.13;106574;1267;24257;-75
2023/12/13 01:11:10;;;;;;;20.20;18.10;;;;;;;2.99;100.00;96711.34;106623;1279;24052;-75
2023/12/13 01:13:38;;;;;;;17.80;16.20;;;;;;;3.03;100.00;96709.86;106739;1277;22540;-75
2023/12/13 01:16:07;;;;;;;20.40;18.20;;;;;;;3.06;100.00;96715.48;106641;1270;22547;-75
2023/12/13 01:18:35;;;;;;;21.70;19.50;;;;;;;3.06;100.00;96713.36;106525;1279;24196;-77
2023/12/13 01:21:03;;;;;;;21.60;19.40;;;;;;;3.06;100.00;96719.10;106465;1263;24405;-75
2023/12/13 01:23:32;;;;;;;22.50;20.20;;;;;;;3.05;100.00;96716.65;106633;1279;22550;-75
2023/12/13 01:26:00;;;;;;;19.90;17.90;;;;;;;3.02;100.00;96702.75;106384;1279;22551;-76
2023/12/13 01:28:28;;;;;;;19.10;17.00;;;;;;;3.03;100.00;96701.30;106582;1269;22538;-74
2023/12/13 01:30:57;;;;;;;20.20;17.50;;;;;;;3.03;100.00;96700.98;106537;1273;22556;-75
2023/12/13 01:33:25;;;;;;;18.90;16.90;;;;;;;3.04;100.00;96706.40;106523;1279;22595;-77
2023/12/13 01:35:54;;;;;;;22.60;20.10;;;;;;;3.06;100.00;96704.67;106595;1272;25420;-77
2023/12/13 01:38:22;;;;;;;23.20;20.90;;;;;;;3.06;100.00;96706.70;106521;1267;24381;-77
2023/12/13 01:40:50;;;;;;;21.50;19.00;;;;;;;3.05;100.00;96706.05;106464;1278;25326;-77
2023/12/13 01:43:38;;;;;;;21.40;18.70;;;;;;;3.01;100.00;96698.06;106457;1270;23898;-76
2023/12/13 01:46:07;;;;;;;20.70;17.80;;;;;;;2.98;100.00;96692.92;106395;1269;22609;-76
2023/12/13 01:48:36;;;;;;;21.50;18.50;;;;;;;2.99;100.00;96694.46;106438;1281;22810;-76
2023/12/13 01:51:05;;;;;;;21.30;18.30;;;;;;;3.00;100.00;96696.11;106438;1281;22538;-76
2023/12/13 01:53:34;;;;;;;20.60;17.00;;;;;;;3.04;100.00;96694.67;106390;1268;25379;-77
2023/12/13 01:56:04;;;;;;;18.80;16.40;;;;;;;3.04;100.00;96684.52;106380;1269;24486;-76
2023/12/13 01:58:36;;;;;;;19.80;17.70;;;;;;;3.04;100.00;96681.33;106423;1271;22535;-76
2023/12/13 02:01:06;;;;;;;19.60;16.20;;;;;;;3.06;100.00;96680.77;106417;1267;24370;-77
2023/12/13 02:03:37;;;;;;;18.30;16.30;;;;;;;3.08;100.00;96675.29;106322;1268;22537;-77
2023/12/13 02:06:05;;;;;;;18.70;16.10;;;;;;;3.13;100.00;96674.81;106451;1278;22615;-78
2023/12/13 02:08:34;;;;;;;18.50;16.60;;;;;;;3.15;100.00;96678.03;106432;1269;22543;-78
2023/12/13 02:11:02;;;;;;;18.10;16.20;;;;;;;3.15;100.00;96674.05;106610;1276;24987;-78
2023/12/13 02:13:30;;;;;;;17.80;16.00;;;;;;;3.14;100.00;96663.23;106520;1272;22563;-78
2023/12/13 02:15:58;;;;;;;16.90;15.10;;;;;;;3.15;100.00;96648.70;106643;1260;24916;-78
2023/12/13 02:18:27;;;;;;;17.50;15.70;;;;;;;3.18;100.00;96642.83;106473;1281;23896;-78
2023/12/13 02:20:56;;;;;;;20.10;16.30;;;;;;;3.22;100.00;96647.09;106565;1278;22557;-77
2023/12/13 02:23:24;;;;;;;20.60;18.50;;;;;;;3.25;100.00;96644.52;106335;1281;25442;-78
2023/12/13 02:26:03;;;;;;;19.60;17.00;;;;;;;3.25;100.00;96644.24;106439;1274;22591;-78
2023/12/13 02:28:31;;;;;;;18.10;16.10;;;;;;;3.23;100.00;96636.43;106356;1272;22534;-77
2023/12/13 02:31:00;;;;;;;16.60;14.70;;;;;;;3.20;100.00;96627.51;106721;1276;24254;-78
2023/12/13 02:33:30;;;;;;;17.00;15.20;;;;;;;3.19;100.00;96622.20;106321;1281;24418;-78
2023/12/13 02:35:59;;;;;;;18.10;16.30;;;;;;;3.21;100.00;96619.52;106489;1269;24274;-78
2023/12/13 02:38:27;;;;;;;15.80;14.20;;;;;;;3.24;100.00;96618.27;106967;1267;25316;-78
2023/12/13 02:40:55;;;;;;;17.50;15.70;;;;;;;3.26;100.00;96615.32;106813;1280;22566;-78
2023/12/13 02:43:23;;;;;;;20.00;16.60;;;;;;;3.25;100.00;96610.54;106849;1269;23934;-78
2023/12/13 02:45:51;;;;;;;18.00;16.10;;;;;;;3.24;100.00;96606.55;106804;1274;22655;-76
2023/12/13 02:48:19;;;;;;;18.60;15.20;;;;;;;3.21;100.00;96599.19;106471;1281;22901;-76
2023/12/13 02:50:48;;;;;;;16.90;15.10;;;;;;;3.21;100.00;96597.21;106528;1279;24267;-76
2023/12/13 02:53:16;;;;;;;16.80;13.70;;;;;;;3.23;100.00;96590.45;106700;1267;22857;-76
2023/12/13 02:55:45;;;;;;;16.20;14.40;;;;;;;3.27;100.00;96587.57;106426;1279;22539;-75
2023/12/13 02:58:14;;;;;;;18.80;15.30;;;;;;;3.30;100.00;96587.63;106417;1275;22545;-75
2023/12/13 03:00:42;;;;;;;16.80;15.10;;;;;;;3.35;100.00;96592.91;106346;1279;22547;-75
2023/12/13 03:03:10;;;;;;;22.40;19.40;;;;;;;3.38;100.00;96591.23;106363;1259;24205;-74
2023/12/13 03:05:38;;;;;;;22.60;20.30;;;;;;;3.40;100.00;96588.48;106400;1270;22585;-75
2023/12/13 03:08:06;;;;;;;23.90;21.50;;;;;;;3.39;100.00;96580.98;106435;1278;25379;-75
2023/12/13 03:10:34;;;;;;;21.10;18.90;;;;;;;3.40;100.00;96574.95;106473;1281;24084;-74
2023/12/13 03:13:02;;;;;;;20.30;18.10;;;;;;;3.40;100.00;96570.32;106555;1281;24292;-75
2023/12/13 03:15:30;;;;;;;20.50;17.40;;;;;;;3.42;100.00;96567.42;106400;1279;24505;-73
2023/12/13 03:17:58;;;;;;;20.80;18.60;;;;;;;3.45;100.00;96571.44;106414;1266;25368;-74
2023/12/13 03:20:26;;;;;;;21.60;18.50;;;;;;;3.45;100.00;96572.61;106464;1270;24218;-75
2023/12/13 03:22:54;;;;;;;20.80;18.50;;;;;;;3.39;100.00;96575.71;106422;1281;25353;-74
2023/12/13 03:25:22;;;;;;;22.20;19.10;;;;;;;3.30;100.00;96567.08;106384;1270;25343;-75
2023/12/13 03:27:51;;;;;;;21.10;18.60;;;;;;;3.27;100.00;96567.65;106356;1273;24261;-77
2023/12/13 03:30:19;;;;;;;19.60;17.60;;;;;;;3.25;100.00;96570.86;106448;1270;22552;-76
2023/12/13 03:32:47;;;;;;;19.10;16.70;;;;;;;3.24;100.00;96574.57;106592;1274;24370;-76
2023/12/13 03:35:16;;;;;;;20.50;16.50;;;;;;;3.21;100.00;96577.67;106600;1281;23904;-75
2023/12/13 03:37:44;;;;;;;21.80;17.50;;;;;;;3.20;100.00;96575.03;106596;1270;22869;-76
2023/12/13 03:40:12;;;;;;;21.50;17.90;;;;;;;3.18;100.00;96573.30;106567;1281;25303;-76
2023/12/13 03:42:40;;;;;;;20.00;17.90;;;;;;;3.14;100.00;96568.97;106465;1281;22528;-76
2023/12/13 03:45:09;;;;;;;20.70;18.50;;;;;;;3.11;100.00;96566.62;106488;1281;22718;-76
2023/12/13 03:47:37;;;;;;;20.70;18.50;;;;;;;3.09;100.00;96560.41;106330;1281;24053;-76
2023/12/13 03:50:06;;;;;;;21.20;18.60;;;;;;;3.09;100.00;96561.68;106503;1269;24224;-76
2023/12/13 03:52:34;;;;;;;23.20;20.10;;;;;;;3.09;100.00;96563.12;106525;1281;22590;-77
2023/12/13 03:55:02;;;;;;;23.30;21.00;;;;;;;3.07;100.00;96565.16;106449;1267;22626;-78
2023/12/13 03:57:30;;;;;;;24.30;21.90;;;;;;;3.02;100.00;96563.52;106395;1275;22757;-79
2023/12/13 03:59:58;;;;;;;22.60;20.40;;;;;;;2.93;100.00;96550.45;106357;1270;22551;-77
2023/12/13 04:02:26;;;;;;;23.50;21.00;;;;;;;2.91;100.00;96544.20;106408;1268;22549;-77
2023/12/13 04:04:54;;;;;;;20.80;18.60;;;;;;;2.90;100.00;96547.95;106364;1270;22544;-78
2023/12/13 04:07:22;;;;;;;22.20;19.90;;;;;;;2.91;100.00;96550.33;106287;1277;25417;-80
2023/12/13 04:09:50;;;;;;;27.00;24.30;;;;;;;2.91;100.00;96557.02;106564;1273;22718;-77
2023/12/13 04:12:18;;;;;;;28.90;25.80;;;;;;;2.86;100.00;96552.77;106352;1267;23065;-78
2023/12/13 04:14:47;;;;;;;27.60;24.80;;;;;;;2.80;100.00;96548.84;106343;1281;22534;-77
2023/12/13 04:17:15;;;;;;;25.10;22.60;;;;;;;2.75;100.00;96542.61;106420;1266;24275;-77
2023/12/13 04:19:43;;;;;;;27.40;24.80;;;;;;;2.74;100.00;96537.52;106384;1281;24393;-76
2023/12/13 04:22:11;;;;;;;36.70;33.00;;;;;;;2.72;100.00;96531.14;106406;1269;25351;-77
2023/12/13 04:24:39;;;;;;;27.50;24.60;;;;;;;2.72;100.00;96527.42;106389;1268;25361;-77
2023/12/13 04:27:09;;;;;;;24.40;21.80;;;;;;;2.71;100.00;96518.02;106440;1269;25383;-77
2023/12/13 04:29:37;;;;;;;24.10;21.80;;;;;;;2.69;100.00;96515.98;106445;1279;22660;-78
2023/12/13 04:32:05;;;;;;;22.40;20.00;;;;;;;2.68;100.00;96514.02;106672;1281;23928;-78
2023/12/13 04:34:33;;;;;;;21.00;18.80;;;;;;;2.69;100.00;96510.64;106700;1277;23050;-79
2023/12/13 04:37:01;;;;;;;19.70;17.40;;;;;;;2.71;100.00;96511.05;106369;1280;22618;-78
2023/12/13 04:39:29;;;;;;;17.70;15.90;;;;;;;2.75;100.00;96506.16;106397;1280;22556;-79
2023/12/13 04:41:57;;;;;;;19.70;17.60;;;;;;;2.80;100.00;96501.98;106404;1273;22543;-78
2023/12/13 04:44:27;;;;;;;16.90;15.20;;;;;;;2.83;100.00;96502.73;106691;1276;22556;-76
2023/12/13 04:46:56;;;;;;;20.10;16.50;;;;;;;2.85;100.00;96497.01;106326;1283;25748;-78
2023/12/13 04:49:26;;;;;;;18.70;16.60;;;;;;;2.85;100.00;96494.29;106326;1276;23948;-76
2023/12/13 04:51:54;;;;;;;20.10;18.00;;;;;;;2.87;100.00;96488.85;106211;1282;25280;-78
2023/12/13 04:54:22;;;;;;;17.90;16.20;;;;;;;2.91;100.00;96490.84;106378;1269;24385;-78
2023/12/13 04:56:50;;;;;;;15.20;13.60;;;;;;;2.94;100.00;96487.49;106360;1266;25273;-76
2023/12/13 04:59:18;;;;;;;19.00;15.80;;;;;;;2.98;100.00;96483.78;106384;1277;22535;-78
2023/12/13 05:01:46;;;;;;;18.30;16.40;;;;;;;2.99;100.00;96479.41;106335;1272;23007;-77
2023/12/13 05:04:14;;;;;;;17.70;15.90;;;;;;;2.97;100.00;96478.05;106442;1282;22603;-77
2023/12/13 05:06:42;;;;;;;19.70;17.80;;;;;;;2.97;100.00;96477.88;106350;1275;24228;-79
2023/12/13 05:09:10;;;;;;;18.10;16.30;;;;;;;2.97;100.00;96478.30;106406;1275;22642;-78
2023/12/13 05:11:38;;;;;;;20.90;18.10;;;;;;;2.97;100.00;96479.52;106420;1280;25441;-78
2023/12/13 05:14:06;;;;;;;21.40;19.30;;;;;;;2.96;100.00;96480.08;106361;1276;25614;-77
2023/12/13 05:16:34;;;;;;;23.30;21.00;;;;;;;2.94;100.00;96481.17;106377;1264;22540;-77
2023/12/13 05:19:02;;;;;;;27.00;24.50;;;;;;;2.90;100.00;96481.21;106505;1281;22547;-78
2023/12/13 05:21:31;;;;;;;23.80;21.40;;;;;;;2.86;100.00;96479.02;106394;1267;24261;-76
2023/12/13 05:23:59;;;;;;;21.90;19.80;;;;;;;2.84;100.00;96477.18;106322;1267;24203;-77
2023/12/13 05:26:27;;;;;;;22.30;20.10;;;;;;;2.83;100.00;96475.92;106341;1282;25736;-76
2023/12/13 05:28:55;;;;;;;20.80;18.70;;;;;;;2.83;100.00;96473.00;106465;1270;25349;-77
2023/12/13 05:31:23;;;;;;;20.90;18.90;;;;;;;2.82;100.00;96467.95;106480;1282;22555;-78
2023/12/13 05:33:51;;;;;;;19.90;17.80;;;;;;;2.81;100.00;96468.96;106406;1282;22548;-79
2023/12/13 05:36:20;;;;;;;19.90;18.00;;;;;;;2.79;100.00;96469.68;106389;1281;22564;-79
2023/12/13 05:38:48;;;;;;;20.00;17.90;;;;;;;2.76;100.00;96476.16;106541;1266;24270;-77
2023/12/13 05:41:16;;;;;;;19.90;17.90;;;;;;;2.74;100.00;96475.96;106459;1283;22556;-76
2023/12/13 05:43:44;;;;;;;20.60;18.40;;;;;;;2.75;100.00;96482.61;106475;1283;22550;-77
2023/12/13 05:46:12;;;;;;;19.60;17.60;;;;;;;2.75;100.00;96480.42;106370;1282;22545;-78
2023/12/13 05:48:40;;;;;;;19.30;17.40;;;;;;;2.76;100.00;96480.25;106319;1278;25357;-80
2023/12/13 05:51:09;;;;;;;19.10;17.30;;;;;;;2.76;100.00;96477.02;106681;1277;25333;-78
2023/12/13 05:53:37;;;;;;;19.90;18.00;;;;;;;2.76;100.00;96468.56;106641;1276;24393;-77
2023/12/13 05:56:05;;;;;;;19.90;17.90;;;;;;;2.77;100.00;96457.17;106495;1281;25431;-77
2023/12/13 05:58:33;;;;;;;21.60;19.20;;;;;;;2.77;100.00;96461.89;106465;1276;22639;-78
2023/12/13 06:01:02;;;;;;;19.40;17.50;;;;;;;2.80;100.00;96470.04;106398;1282;24238;-77
2023/12/13 06:03:31;;;;;;;19.10;17.10;;;;;;;2.84;100.00;96470.05;106373;1283;24769;-77
2023/12/13 06:05:59;;;;;;;20.70;18.60;;;;;;;2.85;100.00;96472.48;106430;1270;23891;-78
2023/12/13 06:08:27;;;;;;;22.00;19.90;;;;;;;2.85;100.00;96473.88;106543;1270;24408;-77
2023/12/13 06:10:57;;;;;;;23.10;20.90;;;;;;;2.83;100.00;96469.43;106388;1283;25262;-77
2023/12/13 06:13:26;;;;;;;24.20;21.80;;;;;;;2.81;100.00;96470.99;106427;1283;22544;-77
2023/12/13 06:15:54;;;;;;;24.80;22.20;;;;;;;2.75;100.00;96462.28;106335;1276;24299;-77
2023/12/13 06:18:22;;;;;;;23.70;21.40;;;;;;;2.71;100.00;96457.44;106380;1275;25262;-77
2023/12/13 06:20:51;;;;;;;25.40;22.90;;;;;;;2.68;100.00;96450.65;106664;1267;22550;-77
2023/12/13 06:23:19;;;;;;;24.30;21.80;;;;;;;2.65;100.00;96451.22;106402;1267;22546;-76
2023/12/13 06:25:47;;;;;;;27.20;24.50;;;;;;;2.64;100.00;96444.59;106750;1282;22545;-77
2023/12/13 06:28:15;;;;;;;34.20;30.90;;;;;;;2.62;100.00;96438.33;106410;1282;25436;-80
2023/12/13 06:30:43;;;;;;;34.30;31.10;;;;;;;2.61;100.00;96444.04;107224;1275;23242;-75
2023/12/13 06:33:11;;;;;;;36.50;33.30;;;;;;;2.61;100.00;96436.58;106615;1266;24040;-77
2023/12/13 06:35:39;;;;;;;35.50;32.10;;;;;;;2.57;100.00;96434.88;106548;1275;22569;-75
2023/12/13 06:38:07;;;;;;;27.60;25.00;;;;;;;2.53;100.00;96432.47;106586;1281;23123;-77
2023/12/13 06:40:35;;;;;;;29.20;26.40;;;;;;;2.53;100.00;96424.98;106424;1274;25300;-75
2023/12/13 06:43:04;;;;;;;22.20;20.10;;;;;;;2.54;100.00;96414.65;106370;1281;22551;-75
2023/12/13 06:45:32;;;;;;;22.50;20.20;;;;;;;2.53;100.00;96414.88;106451;1265;22552;-78
2023/12/13 06:48:00;;;;;;;22.40;20.00;;;;;;;2.53;100.00;96424.45;106443;1281;25416;-76
2023/12/13 06:50:28;;;;;;;22.80;20.60;;;;;;;2.53;100.00;96440.60;106667;1275;22545;-77
2023/12/13 06:52:56;;;;;;;24.60;22.10;;;;;;;2.53;100.00;96451.47;106376;1275;22529;-79
2023/12/13 06:55:24;;;;;;;22.60;20.20;;;;;;;2.54;100.00;96422.63;106706;1280;24221;-77
2023/12/13 06:57:52;;;;;;;24.60;21.90;;;;;;;2.56;100.00;96397.88;106595;1266;22543;-76
2023/12/13 07:00:21;;;;;;;20.80;18.80;;;;;;;2.58;100.00;96397.04;106414;1275;22556;-76
2023/12/13 07:02:50;;;;;;;24.20;21.80;;;;;;;2.61;100.00;96408.61;106507;1275;23142;-76
2023/12/13 07:05:18;;;;;;;40.30;36.30;;;;;;;2.64;100.00;96426.13;106453;1281;24261;-75
2023/12/13 07:07:47;;;;;;;42.30;37.90;;;;;;;2.64;100.00;96431.70;106483;1269;22966;-76
2023/12/13 07:10:16;;;;;;;44.30;39.80;;;;;;;2.65;100.00;96446.92;106598;1281;22540;-76
2023/12/13 07:12:46;;;;;;;43.80;39.30;;;;;;;2.67;100.00;96452.21;106553;1278;24385;-79
2023/12/13 07:15:14;;;;;;;38.00;34.00;;;;;;;2.65;100.00;96448.88;106728;1281;22982;-76
2023/12/13 07:17:42;;;;;;;30.30;27.00;;;;;;;2.65;100.00;96436.77;106525;1280;22540;-77
2023/12/13 07:20:11;;;;;;;25.40;22.80;;;;;;;2.64;100.00;96433.23;106775;1281;25466;-78
2023/12/13 07:22:39;;;;;;;25.50;22.80;;;;;;;2.65;100.00;96428.63;106990;1277;24399;-78
2023/12/13 07:25:08;;;;;;;26.80;24.20;;;;;;;2.66;100.00;96431.15;106564;1275;22545;-76
2023/12/13 07:27:36;;;;;;;26.40;23.90;;;;;;;2.65;100.00;96435.86;106455;1266;24271;-75
2023/12/13 07:30:05;;;;;;;26.00;23.40;;;;;;;2.66;100.00;96433.03;106562;1281;22592;-77
2023/12/13 07:32:34;;;;;;;28.50;25.60;;;;;;;2.66;100.00;96431.75;106586;1281;22720;-76
2023/12/13 07:35:03;;;;;;;29.90;27.00;;;;;;;2.68;100.00;96424.69;106550;1265;22542;-77
2023/12/13 07:37:31;;;;;;;29.70;26.90;;;;;;;2.73;100.00;96423.47;106877;1273;24280;-76
2023/12/13 07:39:59;;;;;;;31.50;28.40;;;;;;;2.75;100.00;96429.67;106713;1266;23194;-78
2023/12/13 07:42:27;;;;;;;31.40;28.20;;;;;;;2.76;100.00;96437.33;106659;1267;23145;-77
2023/12/13 07:44:56;;;;;;;29.80;26.90;;;;;;;2.77;100.00;96441.46;106642;1258;23148;-77
2023/12/13 07:47:24;;;;;;;28.70;25.80;;;;;;;2.75;100.00;96440.05;107073;1281;22547;-77
2023/12/13 07:49:53;;;;;;;29.00;26.30;;;;;;;2.72;100.00;96431.83;107230;1278;22538;-77
2023/12/13 07:52:21;;;;;;;26.50;23.90;;;;;;;2.70;100.00;96422.54;107340;1278;22551;-76
2023/12/13 07:54:49;;;;;;;29.50;26.70;;;;;;;2.69;100.00;96421.39;106720;1278;22951;-74
2023/12/13 07:57:17;;;;;;;32.80;29.50;;;;;;;2.71;100.00;96420.20;106617;1281;24257;-76
2023/12/13 07:59:45;;;;;;;29.20;26.40;;;;;;;2.69;100.00;96419.88;106685;1270;23366;-77
2023/12/13 08:02:13;;;;;;;22.70;20.50;;;;;;;2.67;100.00;96420.09;107292;1280;25365;-77
2023/12/13 08:04:42;;;;;;;21.70;19.30;;;;;;;2.65;100.00;96425.26;107244;1275;22536;-78
2023/12/13 08:07:11;;;;;;;21.40;19.30;;;;;;;2.62;100.00;96420.52;107276;1270;24327;-76
2023/12/13 08:09:39;;;;;;;21.80;19.70;;;;;;;2.64;100.00;96417.77;106677;1265;22526;-77
2023/12/13 08:12:07;;;;;;;22.10;20.00;;;;;;;2.65;100.00;96414.80;107297;1267;22555;-77
2023/12/13 08:14:35;;;;;;;20.70;18.80;;;;;;;2.66;100.00;96411.84;106514;1270;22540;-77
2023/12/13 08:17:06;;;;;;;21.40;19.40;;;;;;;2.66;100.00;96406.59;106486;1267;24357;-79
2023/12/13 08:19:36;;;;;;;22.80;20.70;;;;;;;2.63;100.00;96389.55;106629;1266;23905;-77
2023/12/13 08:22:04;;;;;;;23.50;21.50;;;;;;;2.63;100.00;96386.84;106533;1281;24279;-78
2023/12/13 08:24:32;;;;;;;21.50;19.60;;;;;;;2.66;100.00;96380.90;106385;1283;22606;-78
2023/12/13 08:27:00;;;;;;;21.10;19.20;;;;;;;2.69;100.00;96369.20;106520;1281;23826;-78
2023/12/13 08:29:31;;;;;;;21.80;19.50;;;;;;;2.73;100.00;96366.92;106551;1281;22586;-77
2023/12/13 08:31:59;;;;;;;21.80;19.50;;;;;;;2.78;100.00;96371.91;106482;1266;25420;-76
2023/12/13 08:34:27;;;;;;;21.70;19.60;;;;;;;2.80;100.00;96368.02;106487;1280;24375;-76
2023/12/13 08:36:55;;;;;;;22.50;20.40;;;;;;;2.82;100.00;96361.12;106429;1266;24288;-77
2023/12/13 08:39:24;;;;;;;18.20;16.30;;;;;;;2.81;100.00;96360.05;106458;1270;25320;-77
2023/12/13 08:41:52;;;;;;;17.50;15.60;;;;;;;2.84;100.00;96372.48;106735;1269;22629;-77
2023/12/13 08:44:21;;;;;;;19.00;17.10;;;;;;;2.88;100.00;96380.55;106457;1267;22559;-77
2023/12/13 08:46:50;;;;;;;16.70;15.10;;;;;;;2.94;100.00;96382.08;106444;1268;22710;-77
2023/12/13 08:49:19;;;;;;;19.20;17.50;;;;;;;2.98;100.00;96379.54;106420;1266;24359;-77
2023/12/13 08:51:47;;;;;;;18.80;17.00;;;;;;;2.99;100.00;96384.77;106499;1266;24333;-77
2023/12/13 08:54:15;;;;;;;20.30;18.10;;;;;;;2.99;100.00;96386.91;106788;1281;22588;-76
2023/12/13 08:56:43;;;;;;;21.20;19.30;;;;;;;2.98;100.00;96391.88;106462;1265;23909;-77
2023/12/13 08:59:11;;;;;;;21.70;19.50;;;;;;;3.03;100.00;96388.05;106766;1281;22650;-77
2023/12/13 09:01:39;;;;;;;21.70;19.70;;;;;;;3.08;100.00;96376.57;106535;1273;24285;-76
2023/12/13 09:04:08;;;;;;;21.40;19.20;;;;;;;3.10;100.00;96373.95;106459;1266;24559;-75
2023/12/13 09:06:36;;;;;;;23.50;21.10;;;;;;;3.12;100.00;96378.28;106447;1279;23041;-76
2023/12/13 09:09:09;;;;;;;23.60;21.40;;;;;;;3.14;100.00;96378.67;106451;1281;25366;-78
2023/12/13 09:11:37;;;;;;;33.30;30.20;;;;;;;3.15;100.00;96377.16;106590;1281;24468;-76
2023/12/13 09:14:05;;;;;;;31.00;28.10;;;;;;;3.17;100.00;96384.16;106569;1274;22550;-77
2023/12/13 09:16:33;;;;;;;27.40;25.00;;;;;;;3.23;100.00;96382.65;106500;1266;22574;-76
2023/12/13 09:19:02;;;;;;;26.50;24.20;;;;;;;3.24;100.00;96385.61;106484;1275;25445;-77
2023/12/13 09:21:30;;;;;;;28.50;26.00;;;;;;;3.23;100.00;96387.23;106543;1265;23407;-77
2023/12/13 09:23:58;;;;;;;24.90;22.50;;;;;;;3.23;100.00;96385.10;106608;1276;22552;-77
2023/12/13 09:26:26;;;;;;;29.80;27.00;;;;;;;3.21;100.00;96387.36;106630;1281;24222;-77
2023/12/13 09:28:55;;;;;;;34.30;30.90;;;;;;;3.23;100.00;96391.44;106565;1270;22537;-76
2023/12/13 09:31:24;;;;;;;30.90;28.00;;;;;;;3.26;100.00;96384.95;106772;1270;23906;-76
2023/12/13 09:33:52;;;;;;;25.60;23.30;;;;;;;3.29;100.00;96379.41;106633;1277;24192;-76
2023/12/13 09:36:21;;;;;;;24.00;21.70;;;;;;;3.32;100.00;96376.64;106594;1281;23293;-75
2023/12/13 09:38:52;;;;;;;25.00;22.80;;;;;;;3.33;100.00;96375.20;106493;1281;22763;-77
2023/12/13 09:41:43;;;;;;;26.60;24.10;;;;;;;3.35;100.00;96377.09;106398;1281;22603;-77
2023/12/13 09:44:14;;;;;;;25.00;22.70;;;;;;;3.34;100.00;96380.48;106416;1278;23890;-77
2023/12/13 09:46:42;;;;;;;29.40;26.80;;;;;;;3.36;100.00;96389.17;106616;1281;22526;-78
2023/12/13 09:49:11;;;;;;;33.70;30.60;;;;;;;3.39;100.00;96389.40;106615;1281;24346;-77
2023/12/13 09:51:59;;;;;;;33.90;30.90;;;;;;;3.42;100.00;96386.77;106423;1281;178046;-77
2023/12/13 09:54:28;;;;;;;38.00;34.50;;;;;;;3.48;100.00;96378.06;106579;1281;24276;-77
2023/12/13 09:56:56;;;;;;;36.30;33.20;;;;;;;3.51;100.00;96374.30;106467;1281;25577;-77
2023/12/13 09:59:24;;;;;;;30.70;27.80;;;;;;;3.52;100.00;96374.07;106539;1281;24687;-77
2023/12/13 10:01:52;;;;;;;31.40;28.60;;;;;;;3.56;100.00;96377.14;106799;1275;23202;-76
2023/12/13 10:04:21;;;;;;;27.30;24.90;;;;;;;3.63;100.00;96378.80;106459;1281;22530;-78
2023/12/13 10:06:48;;;;;;;27.50;25.10;;;;;;;3.67;100.00;96383.48;106431;1281;25264;-77
2023/12/13 10:09:17;;;;;;;29.70;27.20;;;;;;;3.72;100.00;96379.98;106442;1276;22577;-78
2023/12/13 10:11:45;;;;;;;29.00;26.40;;;;;;;3.73;100.00;96381.26;106474;1265;22563;-76
2023/12/13 10:14:13;;;;;;;27.90;25.30;;;;;;;3.69;100.00;96372.30;106471;1266;22560;-77
2023/12/13 10:16:41;;;;;;;27.40;24.90;;;;;;;3.68;100.00;96364.34;106466;1281;25259;-77
2023/12/13 10:19:09;;;;;;;23.80;21.70;;;;;;;3.67;100.00;96361.67;106469;1266;22557;-79
2023/12/13 10:21:38;;;;;;;22.60;20.60;;;;;;;3.73;100.00;96358.44;106782;1281;25148;-74
2023/12/13 10:24:06;;;;;;;22.90;20.80;;;;;;;3.79;100.00;96357.71;106642;1275;25269;-77
2023/12/13 10:26:35;;;;;;;21.00;19.10;;;;;;;3.87;100.00;96354.90;106593;1275;23402;-75
2023/12/13 10:29:04;;;;;;;20.70;18.90;;;;;;;3.92;100.00;96349.33;107242;1276;22601;-77
2023/12/13 10:31:32;;;;;;;23.20;20.20;;;;;;;3.94;100.00;96346.10;106673;1258;24453;-76
2023/12/13 10:34:00;;;;;;;24.60;22.40;;;;;;;3.95;100.00;96337.71;106710;1269;24378;-77
2023/12/13 10:36:29;;;;;;;24.60;22.50;;;;;;;3.96;100.00;96335.17;107243;1281;22605;-75
2023/12/13 10:39:00;;;;;;;23.30;21.00;;;;;;;3.98;100.00;96330.41;106647;1275;22753;-76
2023/12/13 10:41:28;;;;;;;25.30;22.90;;;;;;;4.03;100.00;96327.55;106710;1278;22581;-76
2023/12/13 10:43:58;;;;;;;24.60;22.40;;;;;;;4.11;100.00;96326.91;106765;1281;23495;-78
2023/12/13 10:46:33;;;;;;;22.90;20.80;;;;;;;4.20;100.00;96318.85;107142;1281;22634;-76
2023/12/13 10:49:03;;;;;;;22.40;19.40;;;;;;;4.26;100.00;96314.05;106795;1281;24288;-77
2023/12/13 10:51:33;;;;;;;21.40;19.40;;;;;;;4.26;100.00;96309.45;106469;1280;22558;-76
2023/12/13 10:54:01;;;;;;;22.00;20.10;;;;;;;4.29;100.00;96308.45;106616;1280;22594;-76
2023/12/13 10:56:29;;;;;;;23.00;20.80;;;;;;;4.35;100.00;96308.23;106543;1278;23886;-76
2023/12/13 10:58:58;;;;;;;24.60;22.10;;;;;;;4.42;100.00;96298.73;106421;1266;24372;-76
2023/12/13 11:01:26;;;;;;;24.60;22.30;;;;;;;4.49;100.00;96293.04;106363;1271;24317;-76
2023/12/13 11:04:12;;;;;;;27.40;24.70;;;;;;;4.58;100.00;96284.13;106417;1281;24429;-75
2023/12/13 11:06:45;;;;;;;24.60;22.10;;;;;;;4.68;100.00;96283.74;106503;1281;25390;-76
2023/12/13 11:09:17;;;;;;;25.50;23.00;;;;;;;4.72;100.00;96284.34;106592;1266;23418;-76
2023/12/13 11:11:49;;;;;;;28.00;25.50;;;;;;;4.72;100.00;96279.61;106618;1270;22567;-76
2023/12/13 11:14:18;;;;;;;24.80;22.50;;;;;;;4.74;100.00;96274.86;106624;1258;23884;-76
2023/12/13 11:16:49;;;;;;;24.90;22.70;;;;;;;4.82;100.00;96267.31;106505;1274;22580;-76
2023/12/13 11:19:22;;;;;;;25.50;23.00;;;;;;;4.89;100.00;96264.24;106447;1270;25389;-76
2023/12/13 11:21:51;;;;;;;24.10;21.80;;;;;;;5.00;100.00;96257.80;106480;1273;22969;-77